createdAt,value
2018-09-30T00:01:47.862Z,8.67
2018-09-30T00:02:48.334Z,8.61
2018-09-30T00:04:42.304Z,8.64
2018-09-30T00:05:41.791Z,8.57
2018-09-30T00:07:37.714Z,8.57
2018-09-30T00:08:37.719Z,8.53
2018-09-30T00:10:31.168Z,8.46
2018-09-30T00:11:31.154Z,8.46
2018-09-30T00:13:25.616Z,8.46
2018-09-30T00:14:26.104Z,8.47
2018-09-30T00:16:20.039Z,8.43
2018-09-30T00:17:20.012Z,8.50
2018-09-30T00:19:14.959Z,8.42
2018-09-30T00:20:14.443Z,8.50
2018-09-30T00:22:09.399Z,8.42
2018-09-30T00:23:07.880Z,8.44
2018-09-30T00:25:02.825Z,8.42
2018-09-30T00:26:02.816Z,8.35
2018-09-30T00:27:55.700Z,8.31
2018-09-30T00:28:56.218Z,8.44
2018-09-30T00:30:51.628Z,8.29
2018-09-30T00:31:51.623Z,8.34
2018-09-30T00:33:45.573Z,8.43
2018-09-30T00:34:45.040Z,8.36
2018-09-30T00:36:40.493Z,8.36
2018-09-30T00:37:39.996Z,8.31
2018-09-30T00:39:33.897Z,8.34
2018-09-30T00:40:33.901Z,8.42
2018-09-30T00:42:29.345Z,8.29
2018-09-30T00:43:28.331Z,8.28
2018-09-30T00:45:23.710Z,8.26
2018-09-30T00:46:22.728Z,8.21
2018-09-30T00:48:19.686Z,8.16
2018-09-30T00:49:17.167Z,8.11
2018-09-30T00:51:13.109Z,8.10
2018-09-30T00:52:12.119Z,8.04
2018-09-30T00:54:07.965Z,8.06
2018-09-30T00:55:06.544Z,8.09
2018-09-30T00:56:59.955Z,8.24
2018-09-30T00:57:59.424Z,8.21
2018-09-30T00:59:53.842Z,8.21
2018-09-30T01:00:54.381Z,8.17
2018-09-30T01:02:48.291Z,8.16
2018-09-30T01:03:48.254Z,8.14
2018-09-30T01:05:43.199Z,7.98
2018-09-30T01:06:42.671Z,7.96
2018-09-30T01:08:37.107Z,7.92
2018-09-30T01:09:37.101Z,7.89
2018-09-30T01:11:32.054Z,7.85
2018-09-30T01:12:31.043Z,7.88
2018-09-30T01:14:26.484Z,7.82
2018-09-30T01:15:26.968Z,7.82
2018-09-30T01:17:19.867Z,7.86
2018-09-30T01:18:19.862Z,7.71
2018-09-30T01:20:14.314Z,7.85
2018-09-30T01:21:14.822Z,7.80
2018-09-30T01:23:09.731Z,7.83
2018-09-30T01:24:08.725Z,7.80
2018-09-30T01:26:04.664Z,7.74
2018-09-30T01:27:05.164Z,7.71
2018-09-30T01:28:59.114Z,7.71
2018-09-30T01:29:59.594Z,7.75
2018-09-30T01:31:53.530Z,7.70
2018-09-30T01:32:53.489Z,7.75
2018-09-30T01:34:47.905Z,7.71
2018-09-30T01:35:47.909Z,7.73
2018-09-30T01:37:42.323Z,7.80
2018-09-30T01:38:42.849Z,7.82
2018-09-30T01:40:36.768Z,7.83
2018-09-30T01:41:37.269Z,7.80
2018-09-30T01:43:31.172Z,7.70
2018-09-30T01:44:31.185Z,7.82
2018-09-30T01:46:26.114Z,7.78
2018-09-30T01:47:25.593Z,7.74
2018-09-30T01:49:19.065Z,7.67
2018-09-30T01:50:19.529Z,7.68
2018-09-30T01:52:13.494Z,7.64
2018-09-30T01:53:13.979Z,7.58
2018-09-30T01:55:09.394Z,7.52
2018-09-30T01:56:08.387Z,7.51
2018-09-30T01:58:01.268Z,7.51
2018-09-30T01:59:01.277Z,7.41
2018-09-30T02:00:55.687Z,7.44
2018-09-30T02:01:55.677Z,7.45
2018-09-30T02:03:50.116Z,7.33
2018-09-30T02:04:50.104Z,7.39
2018-09-30T02:06:46.056Z,7.31
2018-09-30T02:07:45.053Z,7.34
2018-09-30T02:09:38.964Z,7.33
2018-09-30T02:10:38.958Z,7.26
2018-09-30T02:12:33.394Z,7.23
2018-09-30T02:13:33.917Z,7.23
2018-09-30T02:15:27.794Z,7.29
2018-09-30T02:16:27.790Z,7.36
2018-09-30T02:18:22.715Z,7.36
2018-09-30T02:19:22.215Z,7.30
2018-09-30T02:21:19.161Z,7.33
2018-09-30T02:22:16.645Z,7.33
2018-09-30T02:24:11.070Z,7.40
2018-09-30T02:25:11.075Z,7.40
2018-09-30T02:27:05.527Z,7.34
2018-09-30T02:28:05.485Z,7.37
2018-09-30T02:30:00.419Z,7.39
2018-09-30T02:30:59.897Z,7.39
2018-09-30T02:32:54.850Z,7.41
2018-09-30T02:33:54.340Z,7.48
2018-09-30T02:35:49.289Z,7.51
2018-09-30T02:36:48.733Z,7.51
2018-09-30T02:38:43.194Z,7.54
2018-09-30T02:39:43.155Z,7.54
2018-09-30T02:41:38.124Z,7.51
2018-09-30T02:42:37.595Z,7.49
2018-09-30T02:44:32.054Z,7.48
2018-09-30T02:45:32.529Z,7.41
2018-09-30T02:47:28.489Z,7.51
2018-09-30T02:48:27.954Z,7.48
2018-09-30T02:50:21.910Z,7.51
2018-09-30T02:51:21.390Z,7.67
2018-09-30T02:53:17.293Z,7.59
2018-09-30T02:54:17.314Z,7.61
2018-09-30T02:56:14.246Z,7.51
2018-09-30T02:57:13.213Z,7.54
2018-09-30T02:59:07.634Z,7.64
2018-09-30T03:00:08.166Z,7.59
2018-09-30T03:02:02.099Z,7.56
2018-09-30T03:03:02.069Z,7.64
2018-09-30T03:04:55.473Z,7.63
2018-09-30T03:05:56.026Z,7.63
2018-09-30T03:07:50.463Z,7.67
2018-09-30T03:08:49.925Z,7.61
2018-09-30T03:10:44.352Z,7.54
2018-09-30T03:11:44.341Z,7.51
2018-09-30T03:13:38.805Z,7.45
2018-09-30T03:14:39.292Z,7.48
2018-09-30T03:16:33.232Z,7.48
2018-09-30T03:17:33.187Z,7.47
2018-09-30T03:19:28.638Z,7.48
2018-09-30T03:20:28.136Z,7.48
2018-09-30T03:22:21.034Z,7.40
2018-09-30T03:23:21.028Z,7.36
2018-09-30T03:25:15.994Z,7.34
2018-09-30T03:26:15.973Z,7.36
2018-09-30T03:28:09.869Z,7.39
2018-09-30T03:29:09.843Z,7.40
2018-09-30T03:31:04.808Z,7.45
2018-09-30T03:32:04.264Z,7.40
2018-09-30T03:33:58.704Z,7.39
2018-09-30T03:34:58.697Z,7.44
2018-09-30T03:36:53.145Z,7.40
2018-09-30T03:37:53.122Z,7.49
2018-09-30T03:39:47.534Z,7.52
2018-09-30T03:40:47.527Z,7.55
2018-09-30T03:42:42.023Z,7.56
2018-09-30T03:43:41.958Z,7.51
2018-09-30T03:45:36.362Z,7.67
2018-09-30T03:46:36.374Z,7.55
2018-09-30T03:48:30.847Z,7.52
2018-09-30T03:49:30.802Z,7.49
2018-09-30T03:51:25.247Z,7.56
2018-09-30T03:52:25.233Z,7.54
2018-09-30T03:54:19.672Z,7.52
2018-09-30T03:55:19.658Z,7.56
2018-09-30T03:57:15.554Z,7.41
2018-09-30T03:58:16.099Z,7.47
2018-09-30T04:00:09.038Z,7.47
2018-09-30T04:01:08.980Z,7.41
2018-09-30T04:03:04.428Z,7.44
2018-09-30T04:04:03.931Z,7.40
2018-09-30T04:05:56.829Z,7.44
2018-09-30T04:06:56.836Z,7.29
2018-09-30T04:08:51.248Z,7.26
2018-09-30T04:09:51.817Z,7.36
2018-09-30T04:11:46.190Z,7.40
2018-09-30T04:12:46.626Z,7.39
2018-09-30T04:14:39.094Z,7.44
2018-09-30T04:15:39.104Z,7.37
2018-09-30T04:17:35.152Z,7.31
2018-09-30T04:18:35.028Z,7.27
2018-09-30T04:20:30.892Z,7.30
2018-09-30T04:21:29.442Z,7.39
2018-09-30T04:23:23.861Z,7.34
2018-09-30T04:24:23.855Z,7.31
2018-09-30T04:26:18.293Z,7.29
2018-09-30T04:27:18.285Z,7.26
2018-09-30T04:29:12.746Z,7.29
2018-09-30T04:30:12.708Z,7.27
2018-09-30T04:32:06.134Z,7.23
2018-09-30T04:33:06.135Z,7.19
2018-09-30T04:35:01.077Z,7.11
2018-09-30T04:36:02.074Z,7.08
2018-09-30T04:37:54.944Z,7.15
2018-09-30T04:38:54.959Z,7.22
2018-09-30T04:40:50.880Z,7.13
2018-09-30T04:41:50.865Z,7.19
2018-09-30T04:43:45.314Z,7.29
2018-09-30T04:44:45.305Z,7.27
2018-09-30T04:46:40.234Z,7.18
2018-09-30T04:47:39.715Z,7.15
2018-09-30T04:49:34.151Z,7.15
2018-09-30T04:50:34.143Z,7.15
2018-09-30T04:52:27.598Z,7.13
2018-09-30T04:53:27.564Z,7.16
2018-09-30T04:55:22.035Z,7.13
2018-09-30T04:56:22.938Z,7.03
2018-09-30T04:58:15.435Z,7.09
2018-09-30T04:59:15.400Z,7.04
2018-09-30T05:01:10.339Z,7.15
2018-09-30T05:02:09.819Z,7.16
2018-09-30T05:04:05.200Z,7.21
2018-09-30T05:05:04.276Z,7.21
2018-09-30T05:06:57.714Z,7.18
2018-09-30T05:07:58.219Z,7.13
2018-09-30T05:09:52.126Z,7.15
2018-09-30T05:10:52.115Z,7.23
2018-09-30T05:12:46.538Z,7.15
2018-09-30T05:13:47.060Z,7.15
2018-09-30T05:15:41.000Z,7.27
2018-09-30T05:16:40.918Z,7.18
2018-09-30T05:18:35.393Z,7.19
2018-09-30T05:19:35.888Z,7.09
2018-09-30T05:21:30.293Z,7.15
2018-09-30T05:22:29.774Z,7.16
2018-09-30T05:24:24.190Z,7.12
2018-09-30T05:25:24.181Z,7.09
2018-09-30T05:27:18.677Z,7.12
2018-09-30T05:28:18.617Z,7.13
2018-09-30T05:30:13.071Z,7.05
2018-09-30T05:31:13.102Z,7.05
2018-09-30T05:33:06.478Z,6.98
2018-09-30T05:34:06.985Z,7.01
2018-09-30T05:36:02.903Z,6.94
2018-09-30T05:37:02.402Z,6.95
2018-09-30T05:38:57.331Z,6.82
2018-09-30T05:39:56.796Z,6.90
2018-09-30T05:41:51.227Z,6.79
2018-09-30T05:42:51.218Z,6.82
2018-09-30T05:44:45.631Z,6.73
2018-09-30T05:45:45.623Z,6.90
2018-09-30T05:47:40.589Z,6.85
2018-09-30T05:48:40.083Z,6.79
2018-09-30T05:50:33.498Z,6.86
2018-09-30T05:51:33.505Z,6.90
2018-09-30T05:53:27.975Z,6.94
2018-09-30T05:54:27.935Z,6.97
2018-09-30T05:56:22.333Z,7.03
2018-09-30T05:57:22.396Z,7.09
2018-09-30T05:59:19.292Z,7.15
2018-09-30T06:00:18.283Z,7.08
2018-09-30T06:02:12.780Z,7.23
2018-09-30T06:03:12.704Z,7.26
2018-09-30T06:05:07.231Z,7.29
2018-09-30T06:08:01.655Z,7.26
2018-09-30T06:09:01.737Z,7.31
2018-09-30T06:11:19.624Z,7.39
2018-09-30T06:12:22.114Z,7.48
2018-09-30T06:14:18.491Z,7.49
2018-09-30T06:15:18.826Z,7.47
2018-09-30T06:17:12.309Z,7.52
2018-09-30T06:18:12.322Z,7.55
2018-09-30T06:20:05.747Z,7.49
2018-09-30T06:21:05.729Z,7.59
2018-09-30T06:22:59.160Z,7.63
2018-09-30T06:23:59.167Z,7.61
2018-09-30T06:25:54.088Z,7.67
2018-09-30T06:26:54.960Z,7.68
2018-09-30T06:28:53.293Z,7.67
2018-09-30T06:29:47.989Z,7.70
2018-09-30T06:31:42.615Z,7.74
2018-09-30T06:32:42.456Z,7.80
2018-09-30T06:34:39.852Z,7.80
2018-09-30T06:35:38.896Z,7.78
2018-09-30T06:37:34.811Z,7.89
2018-09-30T06:38:34.833Z,7.95
2018-09-30T06:40:28.798Z,7.99
2018-09-30T06:41:28.721Z,8.07
2018-09-30T06:43:23.188Z,8.07
2018-09-30T06:44:23.142Z,8.14
2018-09-30T06:46:16.574Z,8.14
2018-09-30T06:47:16.557Z,8.21
2018-09-30T06:49:13.512Z,8.24
2018-09-30T06:50:10.987Z,8.31
2018-09-30T06:52:06.899Z,8.28
2018-09-30T06:53:06.925Z,8.29
2018-09-30T06:55:00.870Z,8.42
2018-09-30T06:56:02.438Z,8.35
2018-09-30T06:57:54.721Z,8.32
2018-09-30T06:58:55.253Z,8.40
2018-09-30T07:00:49.192Z,8.44
2018-09-30T07:01:49.674Z,8.46
2018-09-30T07:03:47.038Z,8.52
2018-09-30T07:04:44.476Z,8.60
2018-09-30T07:06:38.869Z,8.53
2018-09-30T07:07:38.842Z,8.43
2018-09-30T07:09:33.293Z,8.50
2018-09-30T07:10:33.249Z,8.60
2018-09-30T07:12:27.665Z,8.62
2018-09-30T07:13:27.674Z,8.71
2018-09-30T07:15:21.625Z,8.80
2018-09-30T07:16:22.543Z,8.85
2018-09-30T07:18:14.546Z,8.77
2018-09-30T07:19:14.604Z,8.86
2018-09-30T07:24:08.828Z,8.98
2018-09-30T07:25:08.829Z,9.00
2018-09-30T07:27:02.264Z,9.05
2018-09-30T07:28:04.788Z,9.05
2018-09-30T07:30:08.291Z,9.08
2018-09-30T07:31:01.106Z,9.09
2018-09-30T07:32:54.216Z,9.05
2018-09-30T07:33:53.833Z,9.14
2018-09-30T07:35:49.796Z,9.17
2018-09-30T07:36:49.654Z,9.29
2018-09-30T07:38:45.606Z,9.45
2018-09-30T07:39:45.039Z,9.48
2018-09-30T07:41:37.602Z,9.47
2018-09-30T07:42:38.468Z,9.57
2018-09-30T07:44:33.992Z,9.63
2018-09-30T07:45:32.040Z,9.72
2018-09-30T07:47:28.021Z,9.74
2018-09-30T07:48:28.558Z,9.78
2018-09-30T07:50:22.329Z,9.85
2018-09-30T07:51:21.435Z,9.90
2018-09-30T07:53:14.866Z,9.88
2018-09-30T07:54:14.843Z,10.00
2018-09-30T07:56:09.320Z,10.03
2018-09-30T07:57:09.288Z,10.18
2018-09-30T07:59:02.766Z,10.20
2018-09-30T08:02:09.329Z,10.35
2018-09-30T08:04:31.322Z,10.57
2018-09-30T08:06:51.183Z,10.59
2018-09-30T08:07:51.281Z,10.54
2018-09-30T08:09:45.692Z,10.58
2018-09-30T08:10:45.683Z,10.51
2018-09-30T08:12:38.429Z,10.55
2018-09-30T08:13:38.275Z,10.65
2018-09-30T08:15:35.673Z,10.73
2018-09-30T08:16:35.239Z,10.72
2018-09-30T08:18:31.559Z,10.91
2018-09-30T08:19:31.014Z,10.98
2018-09-30T08:21:29.393Z,10.88
2018-09-30T08:22:29.264Z,10.95
2018-09-30T08:24:36.380Z,11.03
2018-09-30T08:25:36.295Z,11.09
2018-09-30T08:27:32.305Z,11.15
2018-09-30T08:28:32.291Z,11.20
2018-09-30T08:30:29.253Z,11.26
2018-09-30T08:31:28.283Z,11.26
2018-09-30T08:33:22.820Z,11.33
2018-09-30T08:34:22.784Z,11.35
2018-09-30T08:36:16.279Z,11.56
2018-09-30T08:37:16.311Z,11.64
2018-09-30T08:39:20.740Z,11.75
2018-09-30T08:40:10.657Z,11.81
2018-09-30T08:42:06.705Z,11.91
2018-09-30T08:43:06.603Z,12.00
2018-09-30T08:44:59.988Z,12.03
2018-09-30T08:46:00.571Z,12.03
2018-09-30T08:47:57.538Z,12.23
2018-09-30T08:48:55.518Z,12.20
2018-09-30T08:50:51.465Z,12.31
2018-09-30T08:51:51.526Z,12.29
2018-09-30T08:53:45.993Z,12.25
2018-09-30T08:54:45.940Z,12.28
2018-09-30T08:56:39.386Z,12.38
2018-09-30T08:57:39.389Z,12.43
2018-09-30T08:59:38.466Z,12.55
2018-09-30T09:00:39.252Z,12.56
2018-09-30T09:02:35.005Z,12.58
2018-09-30T09:03:34.289Z,12.70
2018-09-30T09:05:27.742Z,12.76
2018-09-30T09:06:27.771Z,12.86
2018-09-30T09:08:24.718Z,12.91
2018-09-30T09:09:24.135Z,12.92
2018-09-30T09:11:19.042Z,13.02
2018-09-30T09:12:18.425Z,13.07
2018-09-30T09:14:45.820Z,12.96
2018-09-30T09:20:56.805Z,13.25
2018-09-30T09:22:52.209Z,13.28
2018-09-30T09:23:53.528Z,13.36
2018-09-30T09:25:50.148Z,13.45
2018-09-30T09:26:49.182Z,13.55
2018-09-30T09:28:45.051Z,13.54
2018-09-30T09:29:45.027Z,13.68
2018-09-30T09:31:39.476Z,13.73
2018-09-30T09:32:41.225Z,13.73
2018-09-30T09:34:45.858Z,13.86
2018-09-30T09:35:40.242Z,13.90
2018-09-30T09:37:42.826Z,13.91
2018-09-30T09:38:36.847Z,13.93
2018-09-30T09:40:38.604Z,13.97
2018-09-30T09:41:32.967Z,14.02
2018-09-30T09:43:50.269Z,14.26
2018-09-30T09:44:50.328Z,14.19
2018-09-30T09:46:46.174Z,14.30
2018-09-30T09:47:46.083Z,14.36
2018-09-30T09:49:38.225Z,14.39
2018-09-30T09:50:39.059Z,14.31
2018-09-30T09:52:32.698Z,14.27
2018-09-30T09:53:32.703Z,14.28
2018-09-30T09:55:26.144Z,14.45
2018-09-30T09:56:26.080Z,14.46
2018-09-30T09:58:22.091Z,14.53
2018-09-30T10:00:37.028Z,14.75
2018-09-30T10:03:07.991Z,14.75
2018-09-30T10:06:32.682Z,14.69
2018-09-30T10:09:38.070Z,14.83
2018-09-30T10:12:17.557Z,14.98
2018-09-30T10:13:17.743Z,15.01
2018-09-30T10:15:10.989Z,14.98
2018-09-30T10:16:10.978Z,15.10
2018-09-30T10:18:06.968Z,15.12
2018-09-30T10:19:06.934Z,15.15
2018-09-30T10:21:01.931Z,15.23
2018-09-30T10:22:01.469Z,15.25
2018-09-30T10:23:57.340Z,15.20
2018-09-30T10:24:57.335Z,15.15
2018-09-30T10:26:52.784Z,15.31
2018-09-30T10:27:51.789Z,15.33
2018-09-30T10:29:45.708Z,15.34
2018-09-30T10:30:45.729Z,15.37
2018-09-30T10:32:41.178Z,15.45
2018-09-30T10:33:41.641Z,15.52
2018-09-30T10:35:34.546Z,15.43
2018-09-30T10:36:34.520Z,15.45
2018-09-30T10:38:29.546Z,15.44
2018-09-30T10:39:28.981Z,15.51
2018-09-30T10:41:23.423Z,15.53
2018-09-30T10:42:23.406Z,15.63
2018-09-30T10:44:19.874Z,15.74
2018-09-30T10:45:17.908Z,15.81
2018-09-30T10:47:12.878Z,15.73
2018-09-30T10:48:12.336Z,15.70
2018-09-30T10:50:08.314Z,15.77
2018-09-30T10:51:09.314Z,15.75
2018-09-30T10:53:04.253Z,15.99
2018-09-30T10:54:04.256Z,16.06
2018-09-30T10:55:58.192Z,16.10
2018-09-30T10:56:58.291Z,16.17
2018-09-30T10:58:52.599Z,16.18
2018-09-30T10:59:52.083Z,16.18
2018-09-30T11:01:47.041Z,16.26
2018-09-30T11:02:46.518Z,16.29
2018-09-30T11:04:40.471Z,16.17
2018-09-30T11:05:39.956Z,16.21
2018-09-30T11:07:34.442Z,16.18
2018-09-30T11:08:35.438Z,16.08
2018-09-30T11:10:30.433Z,16.25
2018-09-30T11:11:30.394Z,16.27
2018-09-30T11:13:24.884Z,16.22
2018-09-30T11:14:24.865Z,16.32
2018-09-30T11:16:18.315Z,16.37
2018-09-30T11:17:18.314Z,16.34
2018-09-30T11:23:10.197Z,16.36
2018-09-30T11:24:10.209Z,16.34
2018-09-30T11:26:05.135Z,16.40
2018-09-30T11:27:04.618Z,16.37
2018-09-30T11:29:00.016Z,16.44
2018-09-30T11:29:58.078Z,16.39
2018-09-30T11:31:53.094Z,16.45
2018-09-30T11:32:53.541Z,16.34
2018-09-30T11:34:47.087Z,16.49
2018-09-30T11:35:47.089Z,16.49
2018-09-30T11:37:41.706Z,16.58
2018-09-30T11:38:41.707Z,16.58
2018-09-30T11:40:37.673Z,16.63
2018-09-30T11:41:37.095Z,16.59
2018-09-30T11:43:30.224Z,16.72
2018-09-30T11:44:29.688Z,16.77
2018-09-30T11:46:24.139Z,16.74
2018-09-30T11:47:24.637Z,16.73
2018-09-30T11:49:17.646Z,16.81
2018-09-30T11:50:17.193Z,16.81
2018-09-30T11:52:10.619Z,16.81
2018-09-30T11:53:10.722Z,16.82
2018-09-30T11:55:06.140Z,16.91
2018-09-30T11:56:05.083Z,16.85
2018-09-30T11:57:58.555Z,16.77
2018-09-30T11:58:58.528Z,16.80
2018-09-30T12:00:52.987Z,16.70
2018-09-30T12:01:54.400Z,16.70
2018-09-30T12:03:48.971Z,16.74
2018-09-30T12:04:48.876Z,16.80
2018-09-30T12:06:43.376Z,16.77
2018-09-30T12:07:46.229Z,16.91
2018-09-30T12:09:36.841Z,17.00
2018-09-30T12:10:37.724Z,17.03
2018-09-30T12:12:32.716Z,17.15
2018-09-30T12:13:32.196Z,17.15
2018-09-30T12:15:33.008Z,17.10
2018-09-30T12:16:28.217Z,17.17
2018-09-30T12:19:12.329Z,17.22
2018-09-30T12:20:00.617Z,17.20
2018-09-30T12:22:04.737Z,17.38
2018-09-30T12:24:40.650Z,17.42
2018-09-30T12:27:28.628Z,17.12
2018-09-30T12:27:56.692Z,17.12
2018-09-30T12:29:50.014Z,17.10
2018-09-30T12:30:50.520Z,17.15
2018-09-30T12:32:43.486Z,17.22
2018-09-30T12:33:43.486Z,17.27
2018-09-30T12:35:38.436Z,17.22
2018-09-30T12:36:38.437Z,17.18
2018-09-30T12:38:32.384Z,17.15
2018-09-30T12:39:32.383Z,17.18
2018-09-30T12:41:27.365Z,17.25
2018-09-30T12:42:26.800Z,17.15
2018-09-30T12:44:20.759Z,17.21
2018-09-30T12:45:20.257Z,17.22
2018-09-30T12:47:14.209Z,17.32
2018-09-30T12:48:13.680Z,17.28
2018-09-30T12:50:08.136Z,17.36
2018-09-30T12:51:08.126Z,17.32
2018-09-30T12:53:02.570Z,17.32
2018-09-30T12:54:02.556Z,17.38
2018-09-30T12:55:57.057Z,17.40
2018-09-30T12:56:56.398Z,17.39
2018-09-30T12:58:50.972Z,17.38
2018-09-30T12:59:50.467Z,17.35
2018-09-30T13:01:47.426Z,17.39
2018-09-30T13:02:45.764Z,17.35
2018-09-30T13:04:40.730Z,17.38
2018-09-30T13:05:40.239Z,17.50
2018-09-30T13:07:35.185Z,17.54
2018-09-30T13:08:34.677Z,17.50
2018-09-30T13:10:29.138Z,17.52
2018-09-30T13:11:28.152Z,17.60
2018-09-30T13:13:23.607Z,17.58
2018-09-30T13:14:25.316Z,17.60
2018-09-30T13:16:18.123Z,17.63
2018-09-30T13:17:17.117Z,17.66
2018-09-30T13:19:10.574Z,17.63
2018-09-30T13:20:10.556Z,17.65
2018-09-30T13:22:06.019Z,17.60
2018-09-30T13:23:07.030Z,17.77
2018-09-30T13:25:00.013Z,17.86
2018-09-30T13:26:00.933Z,17.90
2018-09-30T13:27:52.975Z,17.90
2018-09-30T13:28:52.937Z,17.92
2018-09-30T13:30:48.898Z,17.77
2018-09-30T13:31:47.902Z,17.65
2018-09-30T13:33:41.851Z,17.76
2018-09-30T13:34:40.809Z,17.77
2018-09-30T13:36:36.273Z,17.79
2018-09-30T13:37:35.246Z,17.90
2018-09-30T13:39:29.690Z,17.86
2018-09-30T13:40:30.264Z,17.88
2018-09-30T13:42:24.213Z,17.83
2018-09-30T13:43:25.653Z,17.86
2018-09-30T13:45:19.102Z,17.92
2018-09-30T13:46:17.679Z,18.10
2018-09-30T13:48:12.529Z,18.02
2018-09-30T13:49:12.036Z,18.16
2018-09-30T13:51:06.443Z,18.06
2018-09-30T13:52:05.485Z,18.02
2018-09-30T13:53:59.913Z,18.03
2018-09-30T13:54:59.901Z,17.94
2018-09-30T13:56:53.859Z,18.01
2018-09-30T13:57:53.359Z,17.92
2018-09-30T13:59:48.823Z,17.98
2018-09-30T14:00:47.834Z,17.88
2018-09-30T14:02:41.298Z,18.01
2018-09-30T14:03:41.296Z,17.94
2018-09-30T14:05:35.812Z,18.05
2018-09-30T14:06:35.804Z,18.01
2018-09-30T14:08:30.269Z,18.14
2018-09-30T14:09:30.231Z,18.17
2018-09-30T14:11:23.694Z,18.20
2018-09-30T14:12:23.679Z,18.19
2018-09-30T14:14:18.649Z,18.27
2018-09-30T14:15:18.123Z,18.24
2018-09-30T14:17:12.583Z,18.24
2018-09-30T14:18:12.588Z,18.26
2018-09-30T14:20:07.032Z,18.29
2018-09-30T14:21:07.029Z,18.31
2018-09-30T14:23:01.415Z,18.23
2018-09-30T14:24:01.424Z,18.29
2018-09-30T14:25:54.892Z,18.17
2018-09-30T14:26:54.924Z,18.11
2018-09-30T14:28:49.348Z,18.21
2018-09-30T14:29:49.828Z,18.21
2018-09-30T14:31:43.286Z,18.14
2018-09-30T14:32:42.737Z,18.19
2018-09-30T14:34:37.195Z,18.24
2018-09-30T14:35:37.203Z,18.21
2018-09-30T14:37:31.630Z,18.16
2018-09-30T14:38:31.636Z,18.20
2018-09-30T14:40:26.100Z,18.13
2018-09-30T14:41:26.093Z,18.08
2018-09-30T14:43:21.048Z,18.06
2018-09-30T14:44:21.474Z,18.14
2018-09-30T14:46:14.942Z,18.14
2018-09-30T14:47:15.461Z,18.17
2018-09-30T14:49:09.420Z,18.08
2018-09-30T14:50:09.390Z,18.16
2018-09-30T14:52:03.843Z,18.08
2018-09-30T14:53:03.838Z,18.11
2018-09-30T14:54:58.800Z,18.05
2018-09-30T14:55:58.796Z,18.03
2018-09-30T14:57:52.726Z,18.03
2018-09-30T14:58:52.740Z,18.01
2018-09-30T15:00:46.177Z,18.14
2018-09-30T15:01:46.183Z,18.16
2018-09-30T15:03:40.598Z,18.19
2018-09-30T15:04:40.594Z,18.20
2018-09-30T15:06:37.552Z,18.13
2018-09-30T15:07:36.531Z,18.16
2018-09-30T15:09:30.987Z,17.99
2018-09-30T15:10:31.489Z,18.01
2018-09-30T15:12:25.432Z,17.95
2018-09-30T15:13:24.436Z,17.87
2018-09-30T15:15:18.919Z,17.84
2018-09-30T15:16:18.908Z,17.90
2018-09-30T15:18:13.373Z,17.98
2018-09-30T15:19:13.374Z,17.99
2018-09-30T15:21:10.246Z,18.05
2018-09-30T15:22:09.298Z,18.01
2018-09-30T15:24:05.292Z,17.96
2018-09-30T15:25:05.242Z,17.92
2018-09-30T15:27:02.723Z,17.99
2018-09-30T15:28:01.174Z,17.98
2018-09-30T15:29:56.134Z,17.92
2018-09-30T15:30:56.138Z,17.96
2018-09-30T15:32:50.585Z,18.03
2018-09-30T15:33:50.604Z,17.95
2018-09-30T15:35:43.529Z,17.94
2018-09-30T15:36:43.518Z,18.03
2018-09-30T15:38:39.478Z,17.94
2018-09-30T15:39:38.474Z,17.90
2018-09-30T15:41:33.879Z,17.83
2018-09-30T15:42:34.415Z,17.86
2018-09-30T15:44:28.848Z,17.87
2018-09-30T15:45:28.351Z,17.79
2018-09-30T15:47:22.327Z,17.74
2018-09-30T15:48:22.798Z,17.69
2018-09-30T15:50:17.891Z,17.63
2018-09-30T15:51:17.880Z,17.69
2018-09-30T15:53:12.328Z,17.52
2018-09-30T15:54:12.315Z,17.55
2018-09-30T15:56:09.266Z,17.65
2018-09-30T15:57:06.749Z,17.63
2018-09-30T15:59:00.229Z,17.57
2018-09-30T16:00:00.709Z,17.54
2018-09-30T16:01:54.619Z,17.52
2018-09-30T16:02:55.567Z,17.55
2018-09-30T16:04:49.582Z,17.40
2018-09-30T16:05:49.065Z,17.40
2018-09-30T16:07:45.525Z,17.43
2018-09-30T16:08:45.036Z,17.47
2018-09-30T16:10:39.501Z,17.46
2018-09-30T16:11:39.466Z,17.35
2018-09-30T16:13:34.925Z,17.46
2018-09-30T16:14:33.864Z,17.42
2018-09-30T16:16:29.831Z,17.36
2018-09-30T16:17:28.326Z,17.39
2018-09-30T16:19:22.785Z,17.39
2018-09-30T16:20:22.775Z,17.38
2018-09-30T16:22:16.216Z,17.20
2018-09-30T16:23:16.728Z,17.22
2018-09-30T16:25:09.688Z,17.24
2018-09-30T16:26:10.172Z,17.17
2018-09-30T16:28:03.100Z,17.21
2018-09-30T16:29:03.100Z,17.15
2018-09-30T16:30:58.067Z,17.17
2018-09-30T16:31:57.536Z,17.12
2018-09-30T16:33:51.998Z,17.05
2018-09-30T16:34:52.489Z,17.03
2018-09-30T16:36:46.898Z,17.05
2018-09-30T16:37:46.403Z,16.95
2018-09-30T16:39:40.850Z,16.95
2018-09-30T16:40:39.840Z,16.85
2018-09-30T16:42:34.799Z,16.88
2018-09-30T16:43:34.276Z,16.77
2018-09-30T16:45:27.782Z,16.80
2018-09-30T16:46:27.716Z,16.72
2018-09-30T16:48:22.136Z,16.66
2018-09-30T16:49:22.689Z,16.66
2018-09-30T16:51:15.682Z,16.58
2018-09-30T16:52:15.579Z,16.57
2018-09-30T16:54:10.564Z,16.48
2018-09-30T16:55:10.542Z,16.39
2018-09-30T16:57:05.489Z,16.40
2018-09-30T16:58:04.986Z,16.37
2018-09-30T16:59:58.906Z,16.34
2018-09-30T17:00:59.416Z,16.40
2018-09-30T17:02:54.398Z,16.29
2018-09-30T17:03:53.345Z,16.29
2018-09-30T17:05:48.300Z,16.25
2018-09-30T17:06:48.361Z,16.11
2018-09-30T17:08:41.732Z,16.07
2018-09-30T17:09:41.228Z,16.04
2018-09-30T17:11:37.738Z,15.96
2018-09-30T17:12:37.166Z,15.99
2018-09-30T17:14:31.650Z,15.81
2018-09-30T17:15:31.615Z,15.84
2018-09-30T17:17:26.078Z,15.78
2018-09-30T17:18:26.064Z,15.74
2018-09-30T17:20:22.528Z,15.75
2018-09-30T17:23:17.975Z,15.62
2018-09-30T17:24:17.970Z,15.59
2018-09-30T17:26:12.412Z,15.55
2018-09-30T17:27:12.414Z,15.47
2018-09-30T17:29:08.845Z,15.38
2018-09-30T17:30:08.307Z,15.35
2018-09-30T17:32:04.245Z,15.30
2018-09-30T17:33:04.243Z,15.27
2018-09-30T17:35:01.625Z,15.23
2018-09-30T17:35:59.637Z,15.23
2018-09-30T17:37:54.634Z,15.10
2018-09-30T17:38:54.614Z,14.98
2018-09-30T17:40:48.080Z,14.94
2018-09-30T17:41:48.107Z,14.94
2018-09-30T17:43:45.056Z,15.00
2018-09-30T17:44:42.539Z,14.97
2018-09-30T17:46:36.960Z,14.80
2018-09-30T17:47:36.950Z,14.77
2018-09-30T17:49:32.909Z,14.80
2018-09-30T17:50:32.933Z,14.74
2018-09-30T17:52:27.343Z,14.60
2018-09-30T17:53:27.834Z,14.53
2018-09-30T17:55:21.812Z,14.61
2018-09-30T17:56:21.767Z,14.52
2018-09-30T17:58:17.716Z,14.48
2018-09-30T17:59:17.712Z,14.31
2018-09-30T18:01:12.148Z,14.27
2018-09-30T18:02:12.154Z,14.12
2018-09-30T18:04:09.673Z,14.12
2018-09-30T18:05:08.675Z,14.06
2018-09-30T18:07:04.543Z,13.91
2018-09-30T18:08:04.034Z,13.94
2018-09-30T18:09:58.502Z,13.91
2018-09-30T18:10:58.547Z,13.88
2018-09-30T18:12:52.920Z,13.88
2018-09-30T18:13:52.906Z,13.84
2018-09-30T18:15:48.361Z,13.93
2018-09-30T18:16:47.918Z,13.93
2018-09-30T18:18:41.808Z,13.78
2018-09-30T18:19:42.726Z,13.88
2018-09-30T18:21:36.260Z,13.97
2018-09-30T18:22:36.236Z,13.81
2018-09-30T18:24:32.194Z,13.79
2018-09-30T18:25:30.703Z,13.73
2018-09-30T18:27:26.674Z,13.84
2018-09-30T18:28:26.656Z,13.79
2018-09-30T18:30:22.613Z,13.79
2018-09-30T18:31:22.573Z,13.83
2018-09-30T18:33:16.977Z,13.83
2018-09-30T18:34:17.054Z,13.83
2018-09-30T18:36:12.959Z,13.76
2018-09-30T18:37:13.441Z,13.73
2018-09-30T18:39:08.886Z,13.65
2018-09-30T18:40:08.884Z,13.68
2018-09-30T18:42:04.847Z,13.68
2018-09-30T18:43:05.306Z,13.70
2018-09-30T18:45:01.271Z,13.68
2018-09-30T18:46:00.744Z,13.69
2018-09-30T18:47:57.003Z,13.63
2018-09-30T18:48:56.691Z,13.51
2018-09-30T18:50:55.678Z,13.54
2018-09-30T18:51:54.630Z,13.40
2018-09-30T18:53:49.075Z,13.39
2018-09-30T18:54:49.073Z,13.39
2018-09-30T18:56:44.535Z,13.44
2018-09-30T18:57:43.520Z,13.32
2018-09-30T18:59:39.506Z,13.35
2018-09-30T19:00:39.986Z,13.24
2018-09-30T19:02:33.925Z,13.24
2018-09-30T19:03:34.411Z,13.20
2018-09-30T19:05:28.934Z,13.21
2018-09-30T19:06:28.866Z,13.20
2018-09-30T19:08:47.191Z,13.10
2018-09-30T19:09:24.265Z,13.10
2018-09-30T19:11:20.234Z,13.02
2018-09-30T19:12:20.195Z,12.92
2018-09-30T19:14:16.141Z,12.88
2018-09-30T19:15:16.152Z,12.78
2018-09-30T19:17:10.621Z,12.70
2018-09-30T19:18:11.112Z,12.66
2018-09-30T19:20:05.017Z,12.58
2018-09-30T19:21:05.022Z,12.62
2018-09-30T19:22:59.540Z,12.40
2018-09-30T19:24:00.002Z,12.47
2018-09-30T19:25:54.877Z,12.41
2018-09-30T19:26:53.859Z,12.40
2018-09-30T19:28:48.325Z,12.45
2018-09-30T19:29:48.293Z,12.43